Atqasuk, AK

4:51 PM AKDT on August 29, 2015 (GMT -0800)
Atqasuk Edward Burnell Sr Mem | | Change Station
CLOSE
Current Station
Airport
Location: Atqasuk Edward Burnell Sr Mem,
Elevation: 95 ft
Nearby Weather Stations

Elev 95 ft 70.47 °N, 157.44 °W | Updated 4 minutes ago

Light Rain
Light Rain
36 °F
Feels Like 33 °F
N
4
Wind Variable Wind from South

Today
High -- | Low -- °F
--% Chance of Precip.
Yesterday
High -- | Low -- °F
Precip. -- in
6:28 AM 10:29 PM
Full, 100% visible
Pressure 29.38 in
Visibility 10.0 miles
Clouds Mostly Cloudy 1300 ft
Overcast 3800 ft
Windchill 33 °F
Dew Point 34 °F
Humidity 93%
Rainfall 0.01 in
Snow Depth Not available.
UV 1 out of 12
Pollen Not available.
Air Quality Not available.
Flu Activity Not available.
SPECI PATQ 300047Z AUTO 19003KT 10SM -RA BKN013 OVC038 02/01 A2938 RMK AO2 TSNO P0000 $
Pressure 29.38 in
Visibility 10.0 miles
Clouds Mostly Cloudy 1300 ft
Overcast 3800 ft
Windchill 33 °F
Dew Point 34 °F
Humidity 93%
Rainfall 0.01 in
Snow Depth Not available.
UV 1 out of 12
Pollen Not available.
Air Quality Not available.
Flu Activity Not available.
SPECI PATQ 300047Z AUTO 19003KT 10SM -RA BKN013 OVC038 02/01 A2938 RMK AO2 TSNO P0000 $

10-Day Weather Forecast

×

Almanac

Astronomy

Aug. 29, 2015 Rise Set
Actual Time
Civil Twilight
Nautical Twilight
Astronomical Twilight
Moon
Length of Visible Light
Length of Day
Tomorrow will be .
, % of the Moon is Illuminated

Today's Extremes

State Highs State Lows

Community

WunderPhotos

Upload Photos

1,850,813 photos uploaded!

WunderBlogs® & News

Nearby

Air Quality

  Air Quality AQ Index Pollutant
Not available.

Snow Depth

Station Depth Elevation

Earthquake Activity

City Distance Mag. Time & Date
Minimum magnitude displayed is 2.5.

Coastal Water Temperatures

Place Temperature

Stations

Nearby Weather Stations

Station Location Temp. Windchill Dew Point Humidity Wind Precip. Elev Updated Type